Time;durP1;ratioP1;P1;durP2;ratioP2;P2;SDS_P1;SDS_P2;PMS_P1;PMS_P2;Temp;Humidity;BMP_temperature;BMP_pressure;BME280_temperature;BME280_humidity;BME280_pressure;Samples;Min_cycle;Max_cycle;Signal;HPM_P1;HPM_P2
2023/08/19 00:00:21;;;;;;;34.17;30.52;;;;;;;22.02;100.00;101092.59;5091393;28;20028;-71
2023/08/19 00:02:46;;;;;;;33.53;30.10;;;;;;;22.01;100.00;101088.13;5086179;28;20048;-71
2023/08/19 00:05:12;;;;;;;34.70;31.10;;;;;;;21.97;100.00;101084.44;5092300;28;20063;-73
2023/08/19 00:07:37;;;;;;;33.65;30.05;;;;;;;21.97;100.00;101082.44;5075700;28;20056;-71
2023/08/19 00:10:03;;;;;;;35.05;31.45;;;;;;;21.95;100.00;101078.41;5081579;28;20117;-71
2023/08/19 00:12:29;;;;;;;34.70;31.10;;;;;;;21.90;100.00;101070.25;5074926;28;20038;-71
2023/08/19 00:14:55;;;;;;;36.00;32.30;;;;;;;21.86;100.00;101064.56;5070723;28;20304;-70
2023/08/19 00:17:22;;;;;;;33.75;30.25;;;;;;;21.84;100.00;101069.75;5089176;28;20085;-71
2023/08/19 00:19:47;;;;;;;33.50;30.00;;;;;;;21.82;100.00;101063.72;5091829;28;20040;-71
2023/08/19 00:22:13;;;;;;;35.08;31.48;;;;;;;21.81;100.00;101065.72;5078284;28;20032;-71
2023/08/19 00:24:38;;;;;;;34.17;30.55;;;;;;;21.79;100.00;101075.72;5071486;28;20032;-71
2023/08/19 00:27:04;;;;;;;35.00;31.33;;;;;;;21.79;100.00;101056.81;5071445;28;20033;-71
2023/08/19 00:29:29;;;;;;;33.45;29.80;;;;;;;21.79;100.00;101070.91;5071528;28;20382;-71
2023/08/19 00:31:54;;;;;;;34.42;30.73;;;;;;;21.76;100.00;101070.84;5072065;28;20055;-72
2023/08/19 00:34:21;;;;;;;35.63;31.92;;;;;;;21.71;100.00;101069.16;5091070;28;20028;-71
2023/08/19 00:36:46;;;;;;;35.72;31.90;;;;;;;21.70;100.00;101073.16;5087642;28;20448;-71
2023/08/19 00:39:11;;;;;;;34.83;31.15;;;;;;;21.68;100.00;101071.94;5083407;28;20027;-71
2023/08/19 00:41:37;;;;;;;35.83;32.17;;;;;;;21.64;100.00;101074.69;5091089;28;20024;-71
2023/08/19 00:44:03;;;;;;;35.45;31.77;;;;;;;21.58;100.00;101073.34;5075276;28;20032;-72
2023/08/19 00:46:29;;;;;;;34.50;30.80;;;;;;;21.61;100.00;101078.25;5075232;28;20377;-72
2023/08/19 00:48:55;;;;;;;35.50;31.70;;;;;;;21.59;100.00;101072.16;5091923;28;20032;-67
2023/08/19 00:51:20;;;;;;;35.15;31.45;;;;;;;21.59;100.00;101075.81;5091839;28;20388;-67
2023/08/19 00:53:46;;;;;;;36.50;32.70;;;;;;;21.59;100.00;101073.00;5090941;28;20028;-66
2023/08/19 00:56:12;;;;;;;35.55;31.85;;;;;;;21.58;100.00;101077.00;5072094;28;20066;-72
2023/08/19 00:58:37;;;;;;;36.10;32.40;;;;;;;21.58;100.00;101071.38;5071402;28;20029;-72
2023/08/19 01:01:02;;;;;;;35.75;32.08;;;;;;;21.58;100.00;101073.34;5071189;28;20504;-71
2023/08/19 01:03:28;;;;;;;36.17;32.47;;;;;;;21.52;100.00;101067.22;5071402;28;20380;-72
2023/08/19 01:06:14;;;;;;;36.55;32.75;;;;;;;21.51;100.00;101072.03;5077724;28;20111;-71
2023/08/19 01:08:45;;;;;;;36.50;32.70;;;;;;;21.44;100.00;101066.28;5091512;28;20089;-71
2023/08/19 01:11:28;;;;;;;36.50;32.60;;;;;;;21.42;100.00;101057.41;5081808;28;20101;-71
2023/08/19 01:14:04;;;;;;;36.88;33.13;;;;;;;21.41;100.00;101069.84;5080199;28;20043;-71
2023/08/19 01:16:32;;;;;;;36.33;32.53;;;;;;;21.38;100.00;101058.53;5076362;28;20445;-71
2023/08/19 01:18:59;;;;;;;37.00;33.20;;;;;;;21.33;100.00;101052.03;5085955;28;20032;-71
2023/08/19 01:21:25;;;;;;;37.50;33.60;;;;;;;21.35;100.00;101057.28;5071044;28;20035;-71
2023/08/19 01:23:54;;;;;;;36.92;33.13;;;;;;;21.31;100.00;101057.22;5071045;28;20029;-71
2023/08/19 01:26:20;;;;;;;36.55;32.75;;;;;;;21.34;100.00;101055.66;5070764;28;20042;-71
2023/08/19 01:28:46;;;;;;;38.10;34.13;;;;;;;21.32;100.00;101066.47;5070453;28;20052;-71
2023/08/19 01:31:11;;;;;;;38.88;34.88;;;;;;;21.33;100.00;101048.41;5071004;28;20131;-72
2023/08/19 01:33:37;;;;;;;37.97;34.05;;;;;;;21.34;100.00;101048.03;5070932;28;20056;-72
2023/08/19 01:36:29;;;;;;;38.40;34.50;;;;;;;21.35;100.00;101046.03;5076408;28;20111;-72
2023/08/19 01:39:06;;;;;;;37.38;33.40;;;;;;;21.34;100.00;101041.59;5091125;28;20024;-72
2023/08/19 01:41:32;;;;;;;36.53;32.72;;;;;;;21.36;100.00;101039.22;5090938;28;20123;-72
2023/08/19 01:43:57;;;;;;;36.08;32.38;;;;;;;21.37;100.00;101035.22;5090950;28;20159;-73
2023/08/19 01:46:24;;;;;;;36.88;33.08;;;;;;;21.38;100.00;101034.03;5091028;28;20073;-73
2023/08/19 01:48:49;;;;;;;37.83;33.83;;;;;;;21.38;100.00;101028.41;5077156;28;20029;-73
2023/08/19 01:51:14;;;;;;;38.35;34.33;;;;;;;21.42;100.00;101029.25;5070605;28;20044;-73
2023/08/19 01:53:40;;;;;;;37.95;34.08;;;;;;;21.40;100.00;101022.38;5076646;28;20501;-73
2023/08/19 01:56:05;;;;;;;37.35;33.45;;;;;;;21.43;100.00;101021.66;5090806;28;20036;-73
2023/08/19 01:58:30;;;;;;;36.75;32.95;;;;;;;21.44;100.00;101015.63;5088740;28;20615;-73
2023/08/19 02:00:56;;;;;;;38.63;34.67;;;;;;;21.44;100.00;101021.25;5077516;28;20036;-73
2023/08/19 02:03:21;;;;;;;37.33;33.53;;;;;;;21.50;100.00;101021.75;5084299;28;20539;-73
2023/08/19 02:05:46;;;;;;;37.67;33.78;;;;;;;21.51;100.00;101026.19;5090193;28;20611;-73
2023/08/19 02:08:12;;;;;;;38.63;34.60;;;;;;;21.51;100.00;101020.56;5076901;28;20033;-73
2023/08/19 02:10:37;;;;;;;36.75;33.08;;;;;;;21.53;100.00;101018.19;5094954;28;20028;-72
2023/08/19 02:13:02;;;;;;;37.03;33.20;;;;;;;21.55;100.00;101020.63;5094902;28;20268;-72
2023/08/19 02:15:28;;;;;;;36.65;32.92;;;;;;;21.55;100.00;101018.59;5094678;28;20028;-72
2023/08/19 02:17:53;;;;;;;37.95;34.13;;;;;;;21.57;100.00;101024.69;5092053;28;20032;-73
2023/08/19 02:20:19;;;;;;;37.15;33.35;;;;;;;21.57;100.00;101021.84;5074299;28;20045;-73
2023/08/19 02:22:44;;;;;;;36.80;33.08;;;;;;;21.60;100.00;101021.16;5074138;28;20117;-73
2023/08/19 02:25:09;;;;;;;37.53;33.47;;;;;;;21.60;100.00;101014.69;5074629;28;20029;-72
2023/08/19 02:27:37;;;;;;;37.33;33.38;;;;;;;21.59;100.00;101015.88;5076208;28;20036;-72
2023/08/19 02:30:03;;;;;;;35.92;32.13;;;;;;;21.60;100.00;101009.06;5094400;28;20056;-72
2023/08/19 02:32:29;;;;;;;37.33;33.45;;;;;;;21.59;100.00;101013.88;5089631;28;20495;-72
2023/08/19 02:34:54;;;;;;;35.80;32.15;;;;;;;21.59;100.00;101005.44;5074128;28;20111;-73
2023/08/19 02:37:19;;;;;;;37.08;33.17;;;;;;;21.60;100.00;101000.59;5090674;28;20388;-72
2023/08/19 02:39:45;;;;;;;36.13;32.28;;;;;;;21.59;100.00;100999.81;5092504;28;20489;-72
2023/08/19 02:42:15;;;;;;;36.45;32.55;;;;;;;21.60;100.00;101000.59;5091905;28;20153;-73
2023/08/19 02:44:41;;;;;;;37.08;33.38;;;;;;;21.60;100.00;101001.44;5093214;28;20035;-71
2023/08/19 02:47:06;;;;;;;37.58;33.67;;;;;;;21.59;100.00;100994.19;5093745;28;20530;-72
2023/08/19 02:49:31;;;;;;;35.63;31.92;;;;;;;21.58;100.00;100989.75;5091229;28;20055;-72
2023/08/19 02:51:57;;;;;;;34.50;30.92;;;;;;;21.59;100.00;100990.53;5075748;28;20033;-73
2023/08/19 02:54:23;;;;;;;36.35;32.65;;;;;;;21.60;100.00;100990.19;5093492;28;20028;-72
2023/08/19 02:56:48;;;;;;;34.80;31.13;;;;;;;21.61;100.00;100988.16;5074394;28;20082;-72
2023/08/19 02:59:14;;;;;;;35.20;31.38;;;;;;;21.57;100.00;100985.25;5087206;28;20145;-72
2023/08/19 03:01:39;;;;;;;35.60;31.90;;;;;;;21.62;100.00;100992.59;5091545;28;20036;-72
2023/08/19 03:04:05;;;;;;;34.85;31.33;;;;;;;21.61;100.00;100990.97;5077267;28;20527;-73
2023/08/19 03:06:33;;;;;;;34.60;30.95;;;;;;;21.54;100.00;100983.19;5073910;28;20037;-73
2023/08/19 03:08:58;;;;;;;35.90;32.05;;;;;;;21.61;100.00;100989.00;5073353;28;20034;-72
2023/08/19 03:11:23;;;;;;;34.67;31.08;;;;;;;21.61;100.00;100994.63;5085748;28;20024;-72
2023/08/19 03:13:49;;;;;;;35.17;31.58;;;;;;;21.61;100.00;100991.81;5093506;28;20081;-72
2023/08/19 03:16:16;;;;;;;33.80;30.15;;;;;;;21.64;100.00;100990.22;5090803;28;20047;-72
2023/08/19 03:18:41;;;;;;;34.00;30.48;;;;;;;21.63;100.00;100989.41;5093386;28;20032;-72
2023/08/19 03:21:07;;;;;;;34.53;30.92;;;;;;;21.65;100.00;100997.50;5093229;28;20621;-73
2023/08/19 03:23:32;;;;;;;35.25;31.23;;;;;;;21.63;100.00;100992.22;5093061;28;20073;-72
2023/08/19 03:25:58;;;;;;;35.42;31.73;;;;;;;21.64;100.00;100991.03;5088716;28;20078;-73
2023/08/19 03:28:24;;;;;;;34.53;30.92;;;;;;;21.61;100.00;100991.81;5073375;28;20472;-73
2023/08/19 03:30:49;;;;;;;33.88;30.38;;;;;;;21.62;100.00;100992.59;5072832;28;20060;-73
2023/08/19 03:33:15;;;;;;;33.53;30.05;;;;;;;21.62;100.00;100987.81;5072517;28;20028;-72
2023/08/19 03:35:40;;;;;;;32.78;29.05;;;;;;;21.60;100.00;100984.56;5072548;28;20047;-72
2023/08/19 03:38:05;;;;;;;33.00;29.52;;;;;;;21.60;100.00;100978.91;5078692;28;20103;-73
2023/08/19 03:40:31;;;;;;;33.05;29.65;;;;;;;21.61;100.00;100974.09;5091048;28;20082;-72
2023/08/19 03:42:56;;;;;;;32.92;29.23;;;;;;;21.60;100.00;100980.91;5078577;28;20456;-73
2023/08/19 03:45:22;;;;;;;32.85;28.23;;;;;;;21.61;100.00;100979.72;5092868;28;20069;-72
2023/08/19 03:47:47;;;;;;;30.80;27.58;;;;;;;21.60;100.00;100978.91;5075443;28;20527;-70
2023/08/19 03:50:13;;;;;;;31.25;27.95;;;;;;;21.59;100.00;100991.38;5072641;28;20036;-71
2023/08/19 03:52:38;;;;;;;31.67;28.17;;;;;;;21.59;100.00;100990.53;5080733;28;20028;-71
2023/08/19 03:55:05;;;;;;;30.55;27.35;;;;;;;21.59;100.00;100991.38;5092817;28;20020;-71
2023/08/19 03:57:30;;;;;;;30.70;27.05;;;;;;;21.58;100.00;100986.94;5084559;28;20064;-72
2023/08/19 03:59:55;;;;;;;29.02;25.83;;;;;;;21.58;100.00;100984.09;5072570;28;20063;-70
2023/08/19 04:02:20;;;;;;;30.50;27.00;;;;;;;21.58;100.00;100988.91;5092264;28;20032;-70
2023/08/19 04:05:04;;;;;;;31.52;27.20;;;;;;;21.59;100.00;100993.34;5072157;28;20070;-70
2023/08/19 04:07:30;;;;;;;29.15;25.50;;;;;;;21.58;100.00;100989.75;5089548;28;20067;-70
2023/08/19 04:09:56;;;;;;;28.45;25.27;;;;;;;21.57;100.00;100979.63;5092476;28;20024;-72
2023/08/19 04:12:25;;;;;;;28.00;24.98;;;;;;;21.58;100.00;100983.28;5090913;28;20028;-70
2023/08/19 04:14:51;;;;;;;27.52;24.48;;;;;;;21.60;100.00;100983.72;5074181;28;20040;-70
2023/08/19 04:17:16;;;;;;;27.92;24.45;;;;;;;21.55;100.00;100979.19;5072054;28;20024;-71
2023/08/19 04:19:43;;;;;;;29.60;24.02;;;;;;;21.56;100.00;100989.28;5071968;28;20032;-72
2023/08/19 04:22:12;;;;;;;30.13;25.17;;;;;;;21.54;100.00;100988.03;5091523;28;20024;-72
2023/08/19 04:24:38;;;;;;;29.70;25.17;;;;;;;21.55;100.00;100986.84;5092262;28;20119;-71
2023/08/19 04:27:04;;;;;;;27.90;24.90;;;;;;;21.55;100.00;100990.47;5073273;28;20103;-72
2023/08/19 04:29:32;;;;;;;28.83;23.48;;;;;;;21.54;100.00;100983.19;5079986;28;20107;-72
2023/08/19 04:31:58;;;;;;;27.38;24.40;;;;;;;21.54;100.00;100985.22;5085993;28;20044;-73
2023/08/19 04:34:24;;;;;;;28.20;24.17;;;;;;;21.57;100.00;100992.91;5070318;28;20357;-73
2023/08/19 04:36:49;;;;;;;30.80;27.15;;;;;;;21.54;100.00;100988.03;5082352;28;20032;-73
2023/08/19 04:39:14;;;;;;;27.48;24.20;;;;;;;21.50;100.00;100985.16;5090992;28;20024;-70
2023/08/19 04:41:40;;;;;;;26.88;23.90;;;;;;;21.54;100.00;100999.28;5089821;28;20032;-70
2023/08/19 04:44:05;;;;;;;27.05;23.35;;;;;;;21.50;100.00;100997.22;5091504;28;20024;-70
2023/08/19 04:46:31;;;;;;;28.25;24.35;;;;;;;21.53;100.00;101000.47;5091680;28;20110;-71
2023/08/19 04:48:56;;;;;;;26.98;24.02;;;;;;;21.51;100.00;101000.88;5091520;28;20068;-71
2023/08/19 04:51:22;;;;;;;27.60;24.25;;;;;;;21.52;100.00;101008.13;5091710;28;20034;-70
2023/08/19 04:53:47;;;;;;;27.00;23.10;;;;;;;21.50;100.00;101008.47;5091594;28;20074;-70
2023/08/19 04:56:13;;;;;;;28.35;23.88;;;;;;;21.50;100.00;101008.47;5078245;28;20081;-71
2023/08/19 04:58:39;;;;;;;30.63;23.17;;;;;;;21.51;100.00;101010.09;5079896;28;20032;-71
2023/08/19 05:01:04;;;;;;;28.50;23.50;;;;;;;21.51;100.00;101012.13;5082699;28;20024;-71
2023/08/19 05:03:29;;;;;;;26.40;23.17;;;;;;;21.50;100.00;101005.66;5079144;28;20020;-71
2023/08/19 05:05:55;;;;;;;26.50;22.35;;;;;;;21.57;100.00;101001.34;5087924;28;20040;-70
2023/08/19 05:08:20;;;;;;;26.85;22.35;;;;;;;21.58;100.00;101011.44;5071134;28;20036;-71
2023/08/19 05:10:45;;;;;;;25.55;21.50;;;;;;;21.58;100.00;101001.00;5071265;28;20032;-70
2023/08/19 05:13:11;;;;;;;26.38;21.13;;;;;;;21.61;100.00;101002.25;5071115;28;20064;-72
2023/08/19 05:15:37;;;;;;;26.00;22.08;;;;;;;21.61;100.00;101000.25;5071207;28;20056;-71
2023/08/19 05:18:04;;;;;;;25.98;21.90;;;;;;;21.62;100.00;101001.06;5071408;28;20031;-70
2023/08/19 05:20:29;;;;;;;26.85;21.55;;;;;;;21.63;100.00;100997.06;5071081;28;20039;-71
2023/08/19 05:22:54;;;;;;;25.30;21.30;;;;;;;21.65;100.00;101000.31;5071063;28;20424;-71
2023/08/19 05:25:20;;;;;;;26.40;21.65;;;;;;;21.66;100.00;101016.81;5081500;28;20096;-70
2023/08/19 05:27:45;;;;;;;26.85;21.13;;;;;;;21.69;100.00;101020.84;5071603;28;20173;-70
2023/08/19 05:30:11;;;;;;;25.60;21.13;;;;;;;21.73;100.00;101021.75;5090819;28;20047;-70
2023/08/19 05:32:37;;;;;;;27.00;20.77;;;;;;;21.76;100.00;101014.53;5084110;28;20491;-70
2023/08/19 05:35:03;;;;;;;25.33;21.15;;;;;;;21.77;100.00;101007.72;5071289;28;20031;-70
2023/08/19 05:37:28;;;;;;;25.13;20.30;;;;;;;21.80;100.00;101010.56;5069210;28;20032;-70
2023/08/19 05:39:53;;;;;;;24.35;19.90;;;;;;;21.82;100.00;101013.03;5070332;28;20020;-70
2023/08/19 05:42:19;;;;;;;26.92;21.27;;;;;;;21.85;100.00;101017.88;5086857;28;20031;-70
2023/08/19 05:44:44;;;;;;;25.52;20.58;;;;;;;21.88;100.00;101021.94;5091127;28;20379;-70
2023/08/19 05:47:09;;;;;;;26.40;19.83;;;;;;;21.92;100.00;101031.25;5091134;28;20028;-70
2023/08/19 05:49:35;;;;;;;26.88;20.88;;;;;;;21.95;100.00;101025.69;5091099;28;20023;-70
2023/08/19 05:52:00;;;;;;;25.95;21.40;;;;;;;21.97;100.00;101019.66;5090861;28;20070;-70
2023/08/19 05:54:26;;;;;;;25.50;20.55;;;;;;;22.04;100.00;101027.41;5087839;28;20059;-70
2023/08/19 05:56:51;;;;;;;25.40;19.98;;;;;;;22.07;100.00;101027.44;5070947;28;20460;-70
2023/08/19 05:59:17;;;;;;;25.33;20.63;;;;;;;22.13;100.00;101036.38;5083935;28;20024;-69
2023/08/19 06:01:42;;;;;;;27.70;20.13;;;;;;;22.18;100.00;101026.78;5086890;28;20024;-70
2023/08/19 06:04:08;;;;;;;24.25;19.60;;;;;;;22.24;100.00;101030.91;5089118;28;20432;-70
2023/08/19 06:06:33;;;;;;;23.95;19.33;;;;;;;22.30;100.00;101020.91;5071642;28;20027;-69
2023/08/19 06:08:58;;;;;;;25.00;20.13;;;;;;;22.35;100.00;101019.78;5090827;28;20032;-69
2023/08/19 06:11:24;;;;;;;24.75;19.83;;;;;;;22.34;100.00;101012.50;5084706;28;20024;-70
2023/08/19 06:13:50;;;;;;;23.80;19.63;;;;;;;22.40;100.00;101027.91;5090179;28;20097;-70
2023/08/19 06:16:15;;;;;;;25.80;20.08;;;;;;;22.43;100.00;101030.75;5087967;28;20116;-70
2023/08/19 06:18:41;;;;;;;25.80;19.95;;;;;;;22.47;100.00;101030.00;5084095;28;20107;-70
2023/08/19 06:21:06;;;;;;;24.40;19.17;;;;;;;22.53;100.00;101042.59;5085246;28;20060;-70
2023/08/19 06:23:32;;;;;;;24.33;20.10;;;;;;;22.59;100.00;101036.19;5070407;28;20530;-71
2023/08/19 06:25:58;;;;;;;24.13;19.30;;;;;;;22.67;100.00;101031.47;5070768;28;20070;-70
2023/08/19 06:28:23;;;;;;;25.65;20.00;;;;;;;22.74;100.00;101033.56;5070582;28;20249;-70
2023/08/19 06:30:50;;;;;;;24.98;19.55;;;;;;;22.80;100.00;101048.91;5075819;28;20097;-70
2023/08/19 06:33:16;;;;;;;23.80;18.50;;;;;;;22.86;100.00;101047.38;5090091;28;20024;-70
2023/08/19 06:35:48;;;;;;;25.70;19.38;;;;;;;22.90;100.00;101047.44;5088679;28;20031;-70
2023/08/19 06:38:15;;;;;;;23.67;19.13;;;;;;;23.00;100.00;101054.38;5090732;28;20456;-70
2023/08/19 06:40:59;;;;;;;24.20;18.48;;;;;;;23.09;100.00;101068.97;5089107;28;20077;-69
2023/08/19 06:43:28;;;;;;;24.42;18.55;;;;;;;23.15;100.00;101078.69;5070392;28;20055;-69
2023/08/19 06:45:55;;;;;;;25.65;18.00;;;;;;;23.22;100.00;101072.34;5070835;28;20486;-69
2023/08/19 06:48:22;;;;;;;24.05;18.55;;;;;;;23.32;100.00;101070.84;5070984;28;20061;-68
2023/08/19 06:50:48;;;;;;;23.92;18.63;;;;;;;23.39;100.00;101078.56;5070196;28;20039;-69
2023/08/19 06:53:13;;;;;;;26.13;18.25;;;;;;;23.48;100.00;101077.03;5072958;28;20024;-69
2023/08/19 06:55:50;;;;;;;22.70;17.98;;;;;;;23.60;100.00;101075.91;5073737;28;20025;-68
2023/08/19 06:58:22;;;;;;;25.33;18.70;;;;;;;23.75;100.00;101078.88;5082921;28;20784;-70
2023/08/19 07:00:51;;;;;;;23.25;17.85;;;;;;;23.84;100.00;101070.88;5083111;28;20354;-70
2023/08/19 07:03:18;;;;;;;22.63;18.40;;;;;;;24.02;100.00;101078.69;5083096;28;20028;-70
2023/08/19 07:05:46;;;;;;;24.05;18.77;;;;;;;24.06;100.00;101077.50;5089518;28;20033;-70
2023/08/19 07:08:14;;;;;;;24.35;18.85;;;;;;;24.12;100.00;101077.94;5073708;28;20111;-70
2023/08/19 07:10:40;;;;;;;25.42;19.67;;;;;;;24.19;100.00;101088.47;5073590;28;20538;-70
2023/08/19 07:13:06;;;;;;;22.33;18.80;;;;;;;24.28;100.00;101089.75;5073769;28;20025;-71
2023/08/19 07:15:32;;;;;;;24.20;18.80;;;;;;;24.33;100.00;101087.72;5073515;28;20076;-71
2023/08/19 07:17:59;;;;;;;24.75;18.90;;;;;;;24.38;100.00;101091.00;5073422;28;20028;-70
2023/08/19 07:20:25;;;;;;;23.45;18.52;;;;;;;24.40;100.00;101088.59;5081625;28;20111;-69
2023/08/19 07:22:52;;;;;;;23.92;18.08;;;;;;;24.41;100.00;101087.38;5087728;28;20020;-69
2023/08/19 07:25:19;;;;;;;24.30;17.98;;;;;;;24.47;100.00;101095.50;5085157;28;20056;-69
2023/08/19 07:27:45;;;;;;;24.05;18.38;;;;;;;24.50;100.00;101095.53;5071745;28;20107;-69
2023/08/19 07:30:11;;;;;;;22.75;17.60;;;;;;;24.56;100.00;101096.75;5088107;28;20056;-69
2023/08/19 07:32:38;;;;;;;23.10;17.98;;;;;;;24.72;100.00;101106.94;5088280;28;20119;-71
2023/08/19 07:35:04;;;;;;;23.80;17.80;;;;;;;24.86;100.00;101101.34;5091035;28;20471;-69
2023/08/19 07:37:30;;;;;;;22.75;17.13;;;;;;;25.05;100.00;101114.31;5082071;28;20015;-71
2023/08/19 07:39:57;;;;;;;23.38;17.75;;;;;;;25.29;99.69;101111.97;5093787;28;20020;-72
2023/08/19 07:42:22;;;;;;;23.08;17.30;;;;;;;25.47;99.00;101100.66;5093392;28;20448;-72
2023/08/19 07:44:48;;;;;;;22.60;17.33;;;;;;;25.60;97.16;101108.78;5093507;28;20032;-72
2023/08/19 07:47:13;;;;;;;23.27;17.33;;;;;;;25.62;96.92;101107.16;5093479;28;20021;-72
2023/08/19 07:49:38;;;;;;;22.70;17.17;;;;;;;25.70;96.82;101128.59;5093535;28;20032;-72
2023/08/19 07:52:05;;;;;;;24.17;17.77;;;;;;;25.70;96.31;101130.63;5074629;28;20024;-72
2023/08/19 07:54:30;;;;;;;24.05;17.88;;;;;;;25.69;96.41;101146.81;5076118;28;20053;-73
2023/08/19 07:56:58;;;;;;;24.33;18.38;;;;;;;25.68;96.47;101142.38;5081780;28;20025;-72
2023/08/19 07:59:25;;;;;;;23.73;17.83;;;;;;;25.79;96.95;101142.38;5080704;28;20070;-71
2023/08/19 08:01:50;;;;;;;24.05;18.02;;;;;;;25.93;96.60;101132.28;5088288;28;20060;-72
2023/08/19 08:04:16;;;;;;;22.67;17.25;;;;;;;26.05;94.57;101148.84;5089166;28;20062;-72
2023/08/19 08:06:42;;;;;;;22.45;17.40;;;;;;;26.10;93.47;101142.81;5083176;28;20036;-71
2023/08/19 08:09:07;;;;;;;23.00;17.58;;;;;;;26.09;93.50;101152.53;5072705;28;20052;-72
2023/08/19 08:11:32;;;;;;;22.60;16.90;;;;;;;26.05;92.44;101157.34;5072565;28;20414;-73
2023/08/19 08:13:58;;;;;;;23.65;17.40;;;;;;;25.99;93.96;101145.59;5076080;28;20509;-72
2023/08/19 08:16:23;;;;;;;22.63;16.92;;;;;;;25.98;94.05;101143.19;5077558;28;20445;-71
2023/08/19 08:18:48;;;;;;;22.42;17.13;;;;;;;25.96;93.68;101131.44;5072477;28;20506;-71
2023/08/19 08:21:19;;;;;;;21.02;16.85;;;;;;;26.01;94.72;101136.72;5072264;28;20073;-71
2023/08/19 08:23:47;;;;;;;23.15;16.95;;;;;;;25.96;94.06;101146.44;5071827;28;20464;-72
2023/08/19 08:26:13;;;;;;;24.92;16.73;;;;;;;25.90;94.07;101150.06;5078262;28;20149;-72
2023/08/19 08:28:38;;;;;;;21.98;17.23;;;;;;;25.89;94.62;101157.75;5083939;28;20142;-72
2023/08/19 08:31:04;;;;;;;22.08;16.23;;;;;;;25.81;95.00;101150.47;5091671;28;20172;-71
2023/08/19 08:33:29;;;;;;;22.48;16.75;;;;;;;25.78;94.64;101145.63;5091355;28;20039;-72
2023/08/19 08:35:54;;;;;;;21.83;17.27;;;;;;;25.72;95.11;101155.72;5086194;28;20071;-71
2023/08/19 08:38:20;;;;;;;24.33;18.00;;;;;;;25.69;95.81;101160.97;5076993;28;20279;-72
2023/08/19 08:40:45;;;;;;;24.25;16.75;;;;;;;25.69;96.18;101172.31;5080325;28;20032;-71
2023/08/19 08:43:12;;;;;;;22.55;17.08;;;;;;;25.63;95.82;101178.81;5088491;28;20112;-71
2023/08/19 08:45:37;;;;;;;22.98;17.25;;;;;;;25.66;96.31;101192.97;5084203;28;20032;-73
2023/08/19 08:48:04;;;;;;;22.63;17.23;;;;;;;25.65;96.21;101190.53;5086317;28;20085;-71
2023/08/19 08:50:29;;;;;;;23.63;17.70;;;;;;;25.64;97.45;101177.59;5081193;28;20361;-70
2023/08/19 08:52:56;;;;;;;23.35;17.45;;;;;;;25.60;97.00;101200.22;5079956;28;20049;-71
2023/08/19 08:55:21;;;;;;;22.85;17.85;;;;;;;25.55;97.88;101197.81;5072426;28;20586;-71
2023/08/19 08:57:46;;;;;;;22.83;17.52;;;;;;;25.50;98.36;101203.88;5084060;28;20056;-70
2023/08/19 09:00:12;;;;;;;22.15;17.10;;;;;;;25.49;98.70;101188.88;5079949;28;20073;-69
2023/08/19 09:02:43;;;;;;;22.70;17.63;;;;;;;25.47;98.86;101190.50;5090767;28;20040;-69
2023/08/19 09:05:09;;;;;;;22.83;17.20;;;;;;;25.49;97.54;101207.91;5083020;28;20423;-70
2023/08/19 09:07:40;;;;;;;22.92;17.77;;;;;;;25.49;97.70;101217.22;5090761;28;20024;-70
2023/08/19 09:10:14;;;;;;;25.20;18.05;;;;;;;25.48;97.53;101223.28;5090795;28;20039;-69
2023/08/19 09:12:56;;;;;;;22.92;17.67;;;;;;;25.50;97.55;101224.50;5090567;28;20028;-69
2023/08/19 09:15:22;;;;;;;22.80;17.55;;;;;;;25.54;97.86;101222.50;5088759;28;20539;-69
2023/08/19 09:17:48;;;;;;;22.70;17.00;;;;;;;25.56;97.70;101233.41;5090103;28;20151;-69
2023/08/19 09:20:17;;;;;;;22.02;17.67;;;;;;;25.62;97.48;101245.97;5088729;28;20023;-69
2023/08/19 09:22:43;;;;;;;22.80;18.17;;;;;;;25.63;97.13;101239.09;5088610;28;20023;-70
2023/08/19 09:25:18;;;;;;;22.42;17.77;;;;;;;25.79;97.41;101240.75;5090312;28;20032;-70
2023/08/19 09:27:44;;;;;;;22.73;17.45;;;;;;;25.91;96.67;101246.00;5090310;28;20086;-69
2023/08/19 09:30:16;;;;;;;23.63;17.35;;;;;;;25.99;96.53;101227.00;5089837;28;20075;-69
2023/08/19 09:32:44;;;;;;;23.95;17.30;;;;;;;26.19;95.36;101246.47;5090475;28;20032;-69
2023/08/19 09:35:14;;;;;;;23.85;18.13;;;;;;;26.31;94.20;101251.72;5089972;28;20499;-69
2023/08/19 09:37:41;;;;;;;22.02;17.33;;;;;;;26.47;94.00;101248.47;5090055;28;20077;-70
2023/08/19 09:40:08;;;;;;;23.02;18.00;;;;;;;26.44;93.87;101267.13;5090220;28;20036;-70
2023/08/19 09:42:35;;;;;;;23.33;18.17;;;;;;;26.59;93.95;101264.28;5089108;28;20158;-71
2023/08/19 09:45:01;;;;;;;23.48;19.38;;;;;;;26.66;92.15;101258.59;5090353;28;20062;-70
2023/08/19 09:47:28;;;;;;;25.98;19.75;;;;;;;26.75;92.64;101264.66;5090362;28;20032;-70
2023/08/19 09:49:53;;;;;;;23.60;18.85;;;;;;;26.77;91.79;101270.78;5090570;28;20039;-71
2023/08/19 09:52:18;;;;;;;24.55;19.30;;;;;;;26.76;92.28;101274.78;5083928;28;20046;-71
2023/08/19 09:54:53;;;;;;;24.83;20.27;;;;;;;26.80;92.76;101276.81;5090143;28;20040;-70
2023/08/19 09:57:32;;;;;;;24.30;20.30;;;;;;;26.86;92.65;101264.66;5090170;28;20024;-70
2023/08/19 09:59:57;;;;;;;26.23;20.13;;;;;;;26.89;91.65;101280.03;5089998;28;20039;-70
2023/08/19 10:02:23;;;;;;;26.38;19.75;;;;;;;26.97;92.36;101286.53;5084575;28;20032;-70
2023/08/19 10:04:48;;;;;;;24.65;20.20;;;;;;;26.99;91.74;101292.59;5089876;28;20036;-70
2023/08/19 10:07:16;;;;;;;25.90;19.48;;;;;;;26.92;91.80;101288.56;5089809;28;20027;-69
2023/08/19 10:09:42;;;;;;;25.48;20.33;;;;;;;26.96;91.68;101305.59;5090216;28;20031;-70
2023/08/19 10:12:12;;;;;;;25.10;20.05;;;;;;;26.95;91.51;101312.50;5088833;28;20111;-70
2023/08/19 10:14:41;;;;;;;25.63;19.70;;;;;;;26.93;90.98;101312.88;5088923;28;20028;-72
2023/08/19 10:17:06;;;;;;;25.23;19.55;;;;;;;27.00;90.59;101320.59;5085244;28;20484;-70
2023/08/19 10:19:41;;;;;;;24.50;20.38;;;;;;;26.97;91.18;101318.53;5080181;28;20037;-74
2023/08/19 10:22:09;;;;;;;24.23;19.33;;;;;;;27.00;89.71;101317.75;5069689;28;20078;-73
2023/08/19 10:24:35;;;;;;;23.77;19.52;;;;;;;27.06;89.77;101315.28;5068604;28;20476;-72
2023/08/19 10:27:02;;;;;;;24.15;19.60;;;;;;;27.17;91.11;101321.75;5072072;28;20060;-72
2023/08/19 10:29:27;;;;;;;23.75;19.13;;;;;;;27.23;89.07;101325.78;5072883;28;20542;-74
2023/08/19 10:31:53;;;;;;;27.08;19.02;;;;;;;27.37;89.69;101326.97;5072870;28;20056;-72
2023/08/19 10:34:18;;;;;;;25.90;20.00;;;;;;;27.52;88.94;101331.41;5072523;28;20021;-73
2023/08/19 10:36:43;;;;;;;24.70;20.02;;;;;;;27.51;88.12;101328.97;5072431;28;20457;-72
2023/08/19 10:39:15;;;;;;;25.38;20.42;;;;;;;27.63;87.63;101337.03;5072422;28;20032;-74
2023/08/19 10:41:40;;;;;;;25.50;21.63;;;;;;;27.54;86.75;101334.63;5072597;28;20024;-74
2023/08/19 10:44:08;;;;;;;26.92;22.42;;;;;;;27.49;86.43;101340.72;5072497;28;20032;-72
2023/08/19 10:46:36;;;;;;;25.52;22.05;;;;;;;27.57;85.37;101341.53;5072393;28;20050;-74
2023/08/19 10:49:03;;;;;;;26.77;21.67;;;;;;;27.47;85.31;101342.38;5073189;28;20052;-75
2023/08/19 10:51:54;;;;;;;26.42;20.52;;;;;;;27.64;86.50;101361.38;5073252;28;20025;-72
2023/08/19 10:54:26;;;;;;;27.33;21.45;;;;;;;27.71;85.40;101380.44;5073054;28;20032;-72
2023/08/19 10:57:22;;;;;;;24.77;20.02;;;;;;;27.68;85.55;101382.06;5071538;28;20028;-72
2023/08/19 10:59:59;;;;;;;23.50;19.67;;;;;;;27.46;85.68;101374.84;5073231;28;20051;-71
2023/08/19 11:02:29;;;;;;;23.13;18.17;;;;;;;27.35;86.82;101378.50;5073228;28;20043;-72